createdAt,value
2023-04-30T00:00:10.945Z,0.00
2023-04-30T00:01:10.948Z,0.00
2023-04-30T00:02:10.881Z,0.00
2023-04-30T00:03:10.990Z,0.00
2023-04-30T00:04:10.904Z,0.00
2023-04-30T00:05:10.850Z,0.00
2023-04-30T00:06:10.877Z,0.00
2023-04-30T00:07:10.852Z,0.00
2023-04-30T00:08:10.831Z,0.00
2023-04-30T00:09:10.811Z,0.00
2023-04-30T00:10:10.788Z,0.00
2023-04-30T00:11:10.785Z,0.00
2023-04-30T00:12:10.797Z,0.00
2023-04-30T00:13:10.774Z,0.00
2023-04-30T00:14:10.770Z,0.00
2023-04-30T00:15:10.752Z,0.00
2023-04-30T00:16:10.825Z,0.00
2023-04-30T00:17:10.723Z,0.00
2023-04-30T00:18:10.747Z,0.00
2023-04-30T00:19:10.708Z,0.00
2023-04-30T00:20:10.759Z,0.00
2023-04-30T00:21:10.663Z,0.00
2023-04-30T00:22:10.708Z,0.00
2023-04-30T00:23:10.679Z,0.00
2023-04-30T00:24:10.657Z,0.00
2023-04-30T00:25:10.645Z,0.00
2023-04-30T00:26:10.634Z,0.00
2023-04-30T00:27:10.613Z,0.00
2023-04-30T00:28:10.641Z,0.00
2023-04-30T00:29:10.865Z,0.00
2023-04-30T00:30:10.607Z,0.00
2023-04-30T00:31:10.643Z,0.00
2023-04-30T00:32:10.675Z,0.00
2023-04-30T00:33:10.621Z,0.00
2023-04-30T00:34:10.539Z,0.00
2023-04-30T00:35:10.551Z,0.00
2023-04-30T00:36:10.538Z,0.00
2023-04-30T00:37:10.532Z,0.00
2023-04-30T00:38:10.515Z,0.00
2023-04-30T00:39:10.488Z,0.00
2023-04-30T00:40:10.486Z,0.00
2023-04-30T00:41:10.487Z,0.00
2023-04-30T00:42:10.483Z,0.00
2023-04-30T00:43:10.456Z,0.00
2023-04-30T00:44:10.479Z,0.00
2023-04-30T00:45:10.441Z,0.00
2023-04-30T00:46:10.535Z,0.00
2023-04-30T00:47:10.408Z,0.00
2023-04-30T00:48:10.420Z,0.00
2023-04-30T00:49:10.434Z,0.00
2023-04-30T00:50:10.418Z,0.00
2023-04-30T00:51:10.395Z,0.00
2023-04-30T00:52:10.374Z,0.00
2023-04-30T00:53:10.441Z,0.00
2023-04-30T00:54:10.342Z,0.00
2023-04-30T00:55:10.348Z,0.00
2023-04-30T00:56:10.351Z,0.00
2023-04-30T00:57:10.321Z,0.00
2023-04-30T00:58:10.339Z,0.00
2023-04-30T00:59:10.293Z,0.00
2023-04-30T01:00:10.373Z,0.00
2023-04-30T01:02:27.949Z,0.00
2023-04-30T01:03:29.031Z,0.00
2023-04-30T01:04:28.846Z,0.00
2023-04-30T01:05:28.866Z,0.00
2023-04-30T01:06:28.877Z,0.00
2023-04-30T01:07:28.917Z,0.00
2023-04-30T01:08:28.811Z,0.00
2023-04-30T01:09:28.950Z,0.00
2023-04-30T01:10:28.790Z,0.00
2023-04-30T01:11:28.798Z,0.00
2023-04-30T01:12:28.770Z,0.00
2023-04-30T01:13:28.753Z,0.00
2023-04-30T01:14:28.820Z,0.00
2023-04-30T01:15:28.739Z,0.00
2023-04-30T01:16:28.810Z,0.00
2023-04-30T01:17:28.740Z,0.00
2023-04-30T01:18:28.931Z,0.00
2023-04-30T01:19:28.710Z,0.00
2023-04-30T01:20:28.729Z,0.00
2023-04-30T01:21:28.779Z,0.00
2023-04-30T01:22:28.692Z,0.00
2023-04-30T01:23:28.697Z,0.00
2023-04-30T01:24:28.655Z,0.00
2023-04-30T01:25:28.666Z,0.00
2023-04-30T01:26:28.681Z,0.00
2023-04-30T01:27:28.620Z,0.00
2023-04-30T01:28:28.640Z,0.00
2023-04-30T01:29:28.596Z,0.00
2023-04-30T01:30:28.637Z,0.00
2023-04-30T01:31:28.664Z,0.00
2023-04-30T01:32:35.112Z,0.00
2023-04-30T01:33:28.554Z,0.00
2023-04-30T01:34:28.559Z,0.00
2023-04-30T01:35:28.555Z,0.00
2023-04-30T01:36:28.544Z,0.00
2023-04-30T01:37:28.519Z,0.00
2023-04-30T01:38:28.499Z,0.00
2023-04-30T01:39:28.494Z,0.00
2023-04-30T01:40:28.483Z,0.00
2023-04-30T01:41:28.509Z,0.00
2023-04-30T01:42:28.479Z,0.00
2023-04-30T01:43:28.457Z,0.00
2023-04-30T01:44:28.467Z,0.00
2023-04-30T01:45:28.473Z,0.00
2023-04-30T01:46:28.464Z,0.00
2023-04-30T01:47:28.475Z,0.00
2023-04-30T01:48:28.408Z,0.00
2023-04-30T01:49:28.412Z,0.00
2023-04-30T01:50:28.389Z,0.00
2023-04-30T01:51:28.374Z,0.00
2023-04-30T01:52:28.373Z,0.00
2023-04-30T01:53:28.368Z,0.00
2023-04-30T01:54:28.374Z,0.00
2023-04-30T01:55:28.336Z,0.00
2023-04-30T01:56:28.318Z,0.00
2023-04-30T01:57:28.334Z,0.00
2023-04-30T01:58:28.303Z,0.00
2023-04-30T01:59:28.306Z,0.00
2023-04-30T02:00:28.328Z,0.00
2023-04-30T02:01:28.338Z,0.00
2023-04-30T02:02:28.292Z,0.00
2023-04-30T02:03:28.340Z,0.00
2023-04-30T02:04:28.243Z,0.00
2023-04-30T02:05:28.272Z,0.00
2023-04-30T02:06:28.587Z,0.00
2023-04-30T02:07:28.225Z,0.00
2023-04-30T02:08:28.202Z,0.00
2023-04-30T02:09:28.203Z,0.00
2023-04-30T02:10:28.195Z,0.00
2023-04-30T02:11:28.180Z,0.00
2023-04-30T02:12:28.160Z,0.00
2023-04-30T02:13:28.150Z,0.00
2023-04-30T02:14:28.157Z,0.00
2023-04-30T02:15:28.123Z,0.00
2023-04-30T02:16:28.178Z,0.00
2023-04-30T02:17:28.113Z,0.00
2023-04-30T02:18:28.139Z,0.00
2023-04-30T02:19:28.086Z,0.00
2023-04-30T02:20:28.087Z,0.00
2023-04-30T02:21:28.059Z,0.00
2023-04-30T02:22:28.093Z,0.00
2023-04-30T02:23:28.061Z,0.00
2023-04-30T02:24:28.034Z,0.00
2023-04-30T02:25:28.022Z,0.00
2023-04-30T02:26:28.014Z,0.00
2023-04-30T02:27:28.010Z,0.00
2023-04-30T02:28:28.003Z,0.00
2023-04-30T02:29:27.993Z,0.00
2023-04-30T02:30:27.986Z,0.00
2023-04-30T02:31:27.974Z,0.00
2023-04-30T02:32:28.074Z,0.00
2023-04-30T02:33:27.958Z,0.00
2023-04-30T02:34:27.947Z,0.00
2023-04-30T02:35:27.945Z,0.00
2023-04-30T02:36:27.923Z,0.00
2023-04-30T02:37:27.889Z,0.00
2023-04-30T02:38:27.912Z,0.00
2023-04-30T02:39:27.883Z,0.00
2023-04-30T02:40:27.900Z,0.00
2023-04-30T02:41:27.885Z,0.00
2023-04-30T02:42:27.859Z,0.00
2023-04-30T02:43:27.841Z,0.00
2023-04-30T02:44:27.829Z,0.00
2023-04-30T02:45:27.876Z,0.00
2023-04-30T02:46:27.850Z,0.00
2023-04-30T02:47:27.825Z,0.00
2023-04-30T02:48:27.804Z,0.00
2023-04-30T02:49:27.784Z,0.00
2023-04-30T02:50:27.770Z,0.00
2023-04-30T02:51:27.755Z,0.00
2023-04-30T02:52:27.755Z,0.00
2023-04-30T02:53:27.750Z,0.00
2023-04-30T02:54:27.732Z,0.00
2023-04-30T02:55:27.724Z,0.00
2023-04-30T02:56:27.718Z,0.00
2023-04-30T02:57:27.728Z,0.00
2023-04-30T02:58:27.713Z,0.00
2023-04-30T02:59:27.682Z,0.00
2023-04-30T03:00:27.697Z,0.00
2023-04-30T03:01:27.709Z,0.00
2023-04-30T03:02:27.671Z,0.00
2023-04-30T03:03:27.669Z,0.00
2023-04-30T03:04:27.673Z,0.00
2023-04-30T03:05:27.641Z,0.00
2023-04-30T03:06:27.683Z,0.00
2023-04-30T03:07:27.607Z,0.00
2023-04-30T03:08:27.584Z,0.00
2023-04-30T03:09:27.582Z,0.00
2023-04-30T03:10:27.595Z,0.00
2023-04-30T03:11:27.550Z,0.00
2023-04-30T03:12:27.544Z,0.00
2023-04-30T03:13:27.541Z,0.00
2023-04-30T03:14:27.520Z,0.00
2023-04-30T03:15:27.534Z,0.00
2023-04-30T03:16:27.528Z,0.00
2023-04-30T03:17:27.523Z,0.00
2023-04-30T03:18:27.507Z,0.00
2023-04-30T03:19:27.483Z,0.00
2023-04-30T03:20:27.484Z,0.00
2023-04-30T03:21:27.465Z,0.00
2023-04-30T03:22:27.536Z,0.00
2023-04-30T03:23:27.472Z,0.00
2023-04-30T03:24:27.441Z,0.00
2023-04-30T03:25:27.450Z,0.00
2023-04-30T03:26:27.430Z,0.00
2023-04-30T03:27:27.349Z,1.00
2023-04-30T03:28:27.362Z,1.00
2023-04-30T03:29:27.374Z,0.00
2023-04-30T03:30:27.404Z,0.00
2023-04-30T03:31:27.441Z,0.00
2023-04-30T03:32:27.375Z,0.00
2023-04-30T03:33:27.309Z,1.00
2023-04-30T03:34:27.364Z,0.00
2023-04-30T03:35:27.289Z,2.00
2023-04-30T03:36:27.335Z,1.00
2023-04-30T03:37:27.276Z,1.00
2023-04-30T03:38:27.236Z,4.00
2023-04-30T03:39:27.230Z,8.00
2023-04-30T03:40:27.225Z,6.00
2023-04-30T03:41:27.233Z,5.00
2023-04-30T03:42:27.231Z,3.00
2023-04-30T03:43:27.196Z,7.00
2023-04-30T03:44:27.188Z,11.00
2023-04-30T03:45:27.171Z,13.00
2023-04-30T03:46:27.247Z,18.00
2023-04-30T03:47:27.188Z,15.00
2023-04-30T03:48:27.172Z,22.00
2023-04-30T03:49:27.125Z,24.00
2023-04-30T03:50:27.130Z,27.00
2023-04-30T03:51:27.120Z,33.00
2023-04-30T03:52:27.116Z,39.00
2023-04-30T03:53:27.097Z,47.00
2023-04-30T03:54:27.092Z,53.00
2023-04-30T03:55:27.063Z,61.00
2023-04-30T03:56:27.084Z,72.00
2023-04-30T03:57:27.046Z,86.00
2023-04-30T03:58:27.057Z,96.00
2023-04-30T03:59:27.035Z,109.00
2023-04-30T04:00:27.021Z,120.00
2023-04-30T04:01:27.016Z,137.00
2023-04-30T04:02:27.059Z,153.00
2023-04-30T04:03:26.985Z,176.00
2023-04-30T04:04:27.162Z,188.00
2023-04-30T04:05:26.968Z,209.00
2023-04-30T04:06:27.091Z,231.00
2023-04-30T04:07:26.980Z,257.00
2023-04-30T04:08:26.967Z,273.00
2023-04-30T04:09:26.932Z,299.00
2023-04-30T04:10:26.936Z,324.00
2023-04-30T04:11:26.925Z,357.00
2023-04-30T04:12:26.919Z,381.00
2023-04-30T04:13:26.885Z,415.00
2023-04-30T04:14:26.884Z,444.00
2023-04-30T04:15:26.870Z,480.00
2023-04-30T04:16:26.946Z,507.00
2023-04-30T04:17:26.918Z,538.00
2023-04-30T04:18:26.844Z,571.00
2023-04-30T04:19:26.856Z,599.00
2023-04-30T04:20:26.837Z,631.00
2023-04-30T04:21:26.807Z,666.00
2023-04-30T04:22:26.806Z,694.00
2023-04-30T04:23:26.799Z,726.00
2023-04-30T04:24:26.791Z,758.00
2023-04-30T04:25:26.779Z,789.00
2023-04-30T04:26:26.764Z,817.00
2023-04-30T04:27:26.759Z,845.00
2023-04-30T04:28:26.741Z,871.00
2023-04-30T04:29:26.730Z,899.00
2023-04-30T04:30:26.720Z,929.00
2023-04-30T04:31:26.728Z,961.00
2023-04-30T04:32:26.743Z,993.00
2023-04-30T04:33:26.683Z,1026.00
2023-04-30T04:34:26.690Z,1058.00
2023-04-30T04:35:26.685Z,1090.00
2023-04-30T04:36:26.652Z,1127.00
2023-04-30T04:37:26.656Z,1169.00
2023-04-30T04:38:26.666Z,1216.00
2023-04-30T04:39:26.620Z,1261.00
2023-04-30T04:40:26.616Z,1304.00
2023-04-30T04:41:26.616Z,1342.00
2023-04-30T04:42:26.612Z,1385.00
2023-04-30T04:43:26.595Z,1432.00
2023-04-30T04:44:26.577Z,1489.00
2023-04-30T04:45:26.559Z,1553.00
2023-04-30T04:46:26.624Z,1617.00
2023-04-30T04:47:26.563Z,1679.00
2023-04-30T04:48:26.548Z,1711.00
2023-04-30T04:49:26.520Z,1746.00
2023-04-30T04:50:26.528Z,1787.00
2023-04-30T04:51:26.521Z,1845.00
2023-04-30T04:52:26.491Z,1913.00
2023-04-30T04:53:26.509Z,1958.00
2023-04-30T04:54:26.472Z,1969.00
2023-04-30T04:55:26.484Z,1948.00
2023-04-30T04:56:26.462Z,1969.00
2023-04-30T04:57:26.457Z,2072.00
2023-04-30T04:58:26.459Z,2161.00
2023-04-30T04:59:26.439Z,2239.00
2023-04-30T05:00:26.412Z,2273.00
2023-04-30T05:01:26.443Z,2275.00
2023-04-30T05:02:26.495Z,2291.00
2023-04-30T05:03:26.461Z,2315.00
2023-04-30T05:04:26.393Z,2357.00
2023-04-30T05:05:26.373Z,2426.00
2023-04-30T05:06:26.404Z,2501.00
2023-04-30T05:07:26.373Z,2559.00
2023-04-30T05:08:26.334Z,2612.00
2023-04-30T05:09:26.334Z,2602.00
2023-04-30T05:10:26.336Z,2567.00
2023-04-30T05:11:26.331Z,2542.00
2023-04-30T05:12:26.296Z,2532.00
2023-04-30T05:13:26.312Z,2548.00
2023-04-30T05:14:26.282Z,2604.00
2023-04-30T05:15:26.266Z,2670.00
2023-04-30T05:16:26.319Z,2742.00
2023-04-30T05:17:26.321Z,2801.00
2023-04-30T05:18:26.232Z,2832.00
2023-04-30T05:19:26.222Z,2861.00
2023-04-30T05:20:26.227Z,2876.00
2023-04-30T05:21:26.201Z,2935.00
2023-04-30T05:22:26.303Z,2991.00
2023-04-30T05:23:26.208Z,3079.00
2023-04-30T05:24:26.189Z,3191.00
2023-04-30T05:25:26.185Z,3285.00
2023-04-30T05:26:26.162Z,3358.00
2023-04-30T05:27:26.161Z,3390.00
2023-04-30T05:28:26.157Z,3401.00
2023-04-30T05:29:26.118Z,3402.00
2023-04-30T05:30:26.130Z,3400.00
2023-04-30T05:31:26.241Z,3440.00
2023-04-30T05:32:26.131Z,3490.00
2023-04-30T05:33:26.115Z,3555.00
2023-04-30T05:34:26.095Z,3636.00
2023-04-30T05:35:26.069Z,3700.00
2023-04-30T05:36:26.063Z,3760.00
2023-04-30T05:37:26.044Z,3838.00
2023-04-30T05:38:26.035Z,3893.00
2023-04-30T05:39:26.046Z,3939.00
2023-04-30T05:40:26.046Z,3962.00
2023-04-30T05:41:26.007Z,3996.00
2023-04-30T05:42:25.994Z,4050.00
2023-04-30T05:43:25.981Z,4140.00
2023-04-30T05:44:25.992Z,4177.00
2023-04-30T05:45:25.991Z,4238.00
2023-04-30T05:46:26.076Z,4320.00
2023-04-30T05:47:25.982Z,4422.00
2023-04-30T05:48:25.933Z,4566.00
2023-04-30T05:49:25.951Z,4672.00
2023-04-30T05:50:25.928Z,4702.00
2023-04-30T05:51:25.901Z,4666.00
2023-04-30T05:52:25.900Z,4594.00
2023-04-30T05:53:25.908Z,4566.00
2023-04-30T05:54:25.893Z,4543.00
2023-04-30T05:55:25.890Z,4576.00
2023-04-30T05:56:25.910Z,4670.00
2023-04-30T05:57:25.862Z,4789.00
2023-04-30T05:58:25.853Z,4834.00
2023-04-30T05:59:25.822Z,4753.00
2023-04-30T06:00:25.820Z,4673.00
2023-04-30T06:01:25.794Z,4659.00
2023-04-30T06:02:26.020Z,4715.00
2023-04-30T06:03:25.803Z,4788.00
2023-04-30T06:04:25.813Z,4814.00
2023-04-30T06:05:25.800Z,4849.00
2023-04-30T06:06:25.822Z,4891.00
2023-04-30T06:07:25.759Z,4902.00
2023-04-30T06:08:25.738Z,5021.00
2023-04-30T06:09:25.732Z,5091.00
2023-04-30T06:10:25.735Z,5107.00
2023-04-30T06:11:25.732Z,5080.00
2023-04-30T06:12:25.687Z,5049.00
2023-04-30T06:13:25.706Z,5045.00
2023-04-30T06:14:25.699Z,5175.00
2023-04-30T06:15:26.430Z,5344.00
2023-04-30T06:16:25.669Z,5486.00
2023-04-30T06:17:25.662Z,5519.00
2023-04-30T06:18:25.649Z,5500.00
2023-04-30T06:19:25.618Z,5440.00
2023-04-30T06:20:25.606Z,5435.00
2023-04-30T06:21:25.619Z,5488.00
2023-04-30T06:22:25.585Z,5645.00
2023-04-30T06:23:25.605Z,5865.00
2023-04-30T06:24:25.579Z,6125.00
2023-04-30T06:25:25.559Z,6300.00
2023-04-30T06:26:25.556Z,6368.00
2023-04-30T06:27:25.546Z,6372.00
2023-04-30T06:28:25.566Z,6338.00
2023-04-30T06:29:25.521Z,6423.00
2023-04-30T06:30:25.527Z,6621.00
2023-04-30T06:31:25.527Z,6826.00
2023-04-30T06:32:25.555Z,7005.00
2023-04-30T06:33:25.505Z,7030.00
2023-04-30T06:34:25.492Z,7048.00
2023-04-30T06:35:25.468Z,7140.00
2023-04-30T06:36:25.462Z,7219.00
2023-04-30T06:37:25.446Z,7363.00
2023-04-30T06:38:25.424Z,7447.00
2023-04-30T06:39:25.461Z,7228.00
2023-04-30T06:40:25.413Z,7262.00
2023-04-30T06:41:25.413Z,7347.00
2023-04-30T06:42:25.457Z,7556.00
2023-04-30T06:43:25.375Z,7683.00
2023-04-30T06:44:25.383Z,7610.00
2023-04-30T06:45:25.369Z,7569.00
2023-04-30T06:46:25.381Z,7882.00
2023-04-30T06:47:25.363Z,8046.00
2023-04-30T06:48:25.329Z,8212.00
2023-04-30T06:49:25.320Z,8306.00
2023-04-30T06:50:25.316Z,8142.00
2023-04-30T06:51:25.327Z,7646.00
2023-04-30T06:52:25.321Z,7708.00
2023-04-30T06:53:25.273Z,7868.00
2023-04-30T06:54:25.255Z,8313.00
2023-04-30T06:55:25.261Z,8690.00
2023-04-30T06:56:25.241Z,8894.00
2023-04-30T06:57:25.247Z,8849.00
2023-04-30T06:58:25.257Z,8894.00
2023-04-30T06:59:25.223Z,9281.00
2023-04-30T07:00:25.283Z,9640.00
2023-04-30T07:01:25.252Z,9923.00
2023-04-30T07:02:25.264Z,10163.00
2023-04-30T07:03:25.290Z,10282.00
2023-04-30T07:04:25.163Z,10316.00
2023-04-30T07:05:25.176Z,10613.00
2023-04-30T07:06:25.240Z,10844.00
2023-04-30T07:07:25.137Z,10966.00
2023-04-30T07:08:25.116Z,10997.00
2023-04-30T07:09:25.130Z,11016.00
2023-04-30T07:10:25.188Z,11304.00
2023-04-30T07:11:25.132Z,12004.00
2023-04-30T07:12:25.072Z,12302.00
2023-04-30T07:13:25.093Z,12070.00
2023-04-30T07:14:25.086Z,12255.00
2023-04-30T07:15:25.071Z,12258.00
2023-04-30T07:16:25.053Z,11441.00
2023-04-30T07:17:27.402Z,12259.00
2023-04-30T07:18:25.015Z,11897.00
2023-04-30T07:19:25.033Z,11571.00
2023-04-30T07:20:25.110Z,12180.00
2023-04-30T07:21:24.996Z,13365.00
2023-04-30T07:22:24.996Z,13114.00
2023-04-30T07:23:24.973Z,13643.00
2023-04-30T07:24:24.955Z,13478.00
2023-04-30T07:25:24.986Z,13367.00
2023-04-30T07:26:24.967Z,13706.00
2023-04-30T07:27:24.941Z,13459.00
2023-04-30T07:28:24.943Z,13428.00
2023-04-30T07:29:24.926Z,14260.00
2023-04-30T07:30:25.427Z,13282.00
2023-04-30T07:31:24.920Z,14243.00
2023-04-30T07:32:24.874Z,14174.00
2023-04-30T07:33:24.916Z,13976.00
2023-04-30T07:34:24.869Z,17315.00
2023-04-30T07:35:24.869Z,11576.00
2023-04-30T07:36:24.830Z,11354.00
2023-04-30T07:37:24.860Z,12340.00
2023-04-30T07:38:24.827Z,11360.00
2023-04-30T07:39:24.841Z,16998.00
2023-04-30T07:40:34.772Z,15045.00
2023-04-30T07:41:24.775Z,17325.00
2023-04-30T07:42:24.829Z,14852.00
2023-04-30T07:43:24.789Z,15850.00
2023-04-30T07:44:24.756Z,22587.00
2023-04-30T07:45:24.782Z,17451.00
2023-04-30T07:46:24.774Z,19000.00
2023-04-30T07:47:24.734Z,17260.00
2023-04-30T07:48:24.725Z,20490.00
2023-04-30T07:49:24.708Z,18879.00
2023-04-30T07:50:24.689Z,17295.00
2023-04-30T07:51:24.702Z,14791.00
2023-04-30T07:52:24.703Z,22972.00
2023-04-30T07:53:24.649Z,17663.00
2023-04-30T07:54:24.659Z,15228.00
2023-04-30T07:55:24.682Z,15404.00
2023-04-30T07:56:24.635Z,17391.00
2023-04-30T07:57:24.616Z,18589.00
2023-04-30T07:58:24.620Z,18193.00
2023-04-30T07:59:24.630Z,21266.00
2023-04-30T08:00:24.600Z,8939.00
2023-04-30T08:01:24.573Z,21440.00
2023-04-30T08:02:24.765Z,20626.00
2023-04-30T08:03:24.655Z,21400.00
2023-04-30T08:04:24.570Z,21416.00
2023-04-30T08:05:24.550Z,17786.00
2023-04-30T08:06:24.521Z,15791.00
2023-04-30T08:07:24.526Z,24185.00
2023-04-30T08:08:24.496Z,4650.00
2023-04-30T08:09:24.526Z,24200.00
2023-04-30T08:10:24.491Z,24820.00
2023-04-30T08:11:24.495Z,7498.00
2023-04-30T08:12:24.501Z,12334.00
2023-04-30T08:13:24.502Z,38571.00
2023-04-30T08:14:24.455Z,31087.00
2023-04-30T08:15:24.468Z,25252.00
2023-04-30T08:16:24.534Z,26517.00
2023-04-30T08:17:24.456Z,32404.00
2023-04-30T08:18:24.404Z,17553.00
2023-04-30T08:19:24.385Z,16136.00
2023-04-30T08:20:24.377Z,17717.00
2023-04-30T08:21:24.403Z,16464.00
2023-04-30T08:22:24.382Z,13429.00
2023-04-30T08:23:24.350Z,14430.00
2023-04-30T08:24:24.332Z,12482.00
2023-04-30T08:25:24.353Z,7759.00
2023-04-30T08:26:24.321Z,15388.00
2023-04-30T08:27:24.329Z,34078.00
2023-04-30T08:28:24.291Z,24038.00
2023-04-30T08:29:24.320Z,32273.00
2023-04-30T08:30:24.281Z,35848.00
2023-04-30T08:31:24.292Z,29021.00
2023-04-30T08:32:24.407Z,37173.00
2023-04-30T08:33:24.325Z,27979.00
2023-04-30T08:34:24.225Z,73648.00
2023-04-30T08:35:24.248Z,73384.00
2023-04-30T08:36:24.208Z,73428.00
2023-04-30T08:37:24.214Z,32908.00
2023-04-30T08:38:24.597Z,34284.00
2023-04-30T08:39:24.223Z,32625.00
2023-04-30T08:40:43.813Z,33293.00
2023-04-30T08:41:24.210Z,30514.00
2023-04-30T08:42:24.154Z,34035.00
2023-04-30T08:43:24.144Z,38568.00
2023-04-30T08:44:24.186Z,19442.00
2023-04-30T08:45:24.412Z,73247.00
2023-04-30T08:46:24.145Z,71944.00
2023-04-30T08:47:24.136Z,32637.00
2023-04-30T08:48:24.097Z,6270.00
2023-04-30T08:49:24.958Z,80934.00
2023-04-30T08:50:24.081Z,61393.00
2023-04-30T08:51:24.071Z,6130.00
2023-04-30T08:52:24.041Z,77208.00
2023-04-30T08:53:24.034Z,77955.00
2023-04-30T08:54:24.051Z,61441.00
2023-04-30T08:55:24.033Z,5516.00
2023-04-30T08:56:25.363Z,15615.00
2023-04-30T08:57:23.992Z,66093.00
2023-04-30T08:58:23.996Z,8743.00
2023-04-30T08:59:24.006Z,73306.00
2023-04-30T09:00:23.954Z,59608.00
2023-04-30T09:01:24.048Z,4330.00
2023-04-30T09:02:23.969Z,28523.00
2023-04-30T09:03:24.128Z,17658.00
2023-04-30T09:04:23.930Z,16986.00
2023-04-30T09:05:23.926Z,5544.00
2023-04-30T09:06:23.941Z,27672.00
2023-04-30T09:07:23.928Z,71474.00
2023-04-30T09:08:23.891Z,62608.00
2023-04-30T09:09:23.883Z,6119.00
2023-04-30T09:10:23.866Z,29620.00
2023-04-30T09:11:23.857Z,73990.00
2023-04-30T09:12:23.880Z,73167.00
2023-04-30T09:13:23.874Z,64066.00
2023-04-30T09:14:23.839Z,7086.00
2023-04-30T09:15:23.816Z,61708.00
2023-04-30T09:16:23.848Z,17494.00
2023-04-30T09:17:23.823Z,14598.00
2023-04-30T09:18:23.790Z,4919.00
2023-04-30T09:19:23.809Z,29448.00
2023-04-30T09:20:23.755Z,72758.00
2023-04-30T09:21:23.774Z,71965.00
2023-04-30T09:22:23.740Z,37988.00
2023-04-30T09:23:23.744Z,36196.00
2023-04-30T09:24:23.741Z,37675.00
2023-04-30T09:25:23.711Z,26956.00
2023-04-30T09:26:23.717Z,19740.00
2023-04-30T09:27:23.692Z,38490.00
2023-04-30T09:28:23.906Z,21917.00
2023-04-30T09:29:23.703Z,72755.00
2023-04-30T09:30:23.684Z,62038.00
2023-04-30T09:31:23.682Z,16735.00
2023-04-30T09:32:23.685Z,5809.00
2023-04-30T09:33:23.624Z,34174.00
2023-04-30T09:34:23.635Z,19033.00
2023-04-30T09:35:23.608Z,18874.00
2023-04-30T09:36:23.618Z,23408.00
2023-04-30T09:37:23.586Z,19392.00
2023-04-30T09:38:23.576Z,15249.00
2023-04-30T09:39:23.581Z,14547.00
2023-04-30T09:40:23.585Z,14866.00
2023-04-30T09:41:23.575Z,15019.00
2023-04-30T09:42:23.579Z,15352.00
2023-04-30T09:43:23.624Z,15783.00
2023-04-30T09:44:23.536Z,16532.00
2023-04-30T09:45:23.536Z,16081.00
2023-04-30T09:46:23.520Z,15779.00
2023-04-30T09:47:23.632Z,18782.00
2023-04-30T09:48:24.088Z,18097.00
2023-04-30T09:49:23.507Z,18388.00
2023-04-30T09:50:23.485Z,18726.00
2023-04-30T09:51:23.445Z,16947.00
2023-04-30T09:52:23.448Z,15018.00
2023-04-30T09:53:23.481Z,14478.00
2023-04-30T09:54:23.423Z,13734.00
2023-04-30T09:55:23.430Z,12169.00
2023-04-30T09:56:23.463Z,10890.00
2023-04-30T09:57:23.385Z,10837.00
2023-04-30T09:58:23.382Z,11226.00
2023-04-30T09:59:23.384Z,11520.00
2023-04-30T10:00:23.365Z,11966.00
2023-04-30T10:01:23.493Z,12652.00
2023-04-30T10:02:23.730Z,12719.00
2023-04-30T10:03:23.390Z,12463.00
2023-04-30T10:04:23.414Z,12702.00
2023-04-30T10:05:23.299Z,13180.00
2023-04-30T10:06:23.325Z,14109.00
2023-04-30T10:07:23.306Z,14622.00
2023-04-30T10:08:23.260Z,14996.00
2023-04-30T10:09:23.258Z,14100.00
2023-04-30T10:10:23.303Z,18021.00
2023-04-30T10:11:23.246Z,15011.00
2023-04-30T10:12:23.250Z,14761.00
2023-04-30T10:13:23.508Z,15621.00
2023-04-30T10:14:23.220Z,16149.00
2023-04-30T10:15:23.285Z,16382.00
2023-04-30T10:16:23.247Z,16271.00
2023-04-30T10:17:23.226Z,15898.00
2023-04-30T10:18:23.190Z,18622.00
2023-04-30T10:19:23.197Z,21591.00
2023-04-30T10:20:23.146Z,20413.00
2023-04-30T10:21:23.154Z,19910.00
2023-04-30T10:22:23.140Z,19326.00
2023-04-30T10:23:23.114Z,19288.00
2023-04-30T10:24:23.107Z,19826.00
2023-04-30T10:25:23.109Z,20252.00
2023-04-30T10:26:23.093Z,18932.00
2023-04-30T10:27:23.077Z,19127.00
2023-04-30T10:28:23.088Z,20298.00
2023-04-30T10:29:23.052Z,21866.00
2023-04-30T10:30:23.068Z,20560.00
2023-04-30T10:31:23.098Z,19436.00
2023-04-30T10:32:23.174Z,19031.00
2023-04-30T10:33:23.135Z,17080.00
2023-04-30T10:34:23.012Z,16799.00
2023-04-30T10:35:22.992Z,15471.00
2023-04-30T10:36:23.021Z,15327.00
2023-04-30T10:37:22.990Z,16451.00
2023-04-30T10:38:23.061Z,17100.00
2023-04-30T10:39:23.074Z,17129.00
2023-04-30T10:40:22.981Z,18117.00
2023-04-30T10:41:22.956Z,19083.00
2023-04-30T10:42:22.921Z,18702.00
2023-04-30T10:43:23.042Z,18411.00
2023-04-30T10:44:22.943Z,21139.00
2023-04-30T10:45:22.919Z,25601.00
2023-04-30T10:46:22.948Z,25525.00
2023-04-30T10:47:22.884Z,23096.00
2023-04-30T10:48:22.863Z,21122.00
2023-04-30T10:49:22.866Z,19218.00
2023-04-30T10:50:22.850Z,18247.00
2023-04-30T10:51:22.960Z,17833.00
2023-04-30T10:52:22.845Z,16921.00
2023-04-30T10:53:22.827Z,16494.00
2023-04-30T10:54:22.913Z,16679.00
2023-04-30T10:55:22.781Z,16796.00
2023-04-30T10:56:22.777Z,16389.00
2023-04-30T10:57:22.786Z,16353.00
2023-04-30T10:58:22.813Z,16859.00
2023-04-30T10:59:22.745Z,16846.00
2023-04-30T11:00:22.763Z,15159.00
2023-04-30T11:01:22.805Z,14476.00
2023-04-30T11:02:22.810Z,14601.00
2023-04-30T11:03:22.693Z,14624.00
2023-04-30T11:04:22.753Z,14862.00
2023-04-30T11:05:22.695Z,14823.00
2023-04-30T11:06:22.747Z,14670.00
2023-04-30T11:07:22.733Z,14326.00
2023-04-30T11:08:22.649Z,14408.00
2023-04-30T11:09:22.638Z,14142.00
2023-04-30T11:10:22.657Z,14500.00
2023-04-30T11:11:22.665Z,15244.00
2023-04-30T11:12:22.604Z,16256.00
2023-04-30T11:13:22.628Z,17154.00
2023-04-30T11:14:22.595Z,16817.00
2023-04-30T11:15:22.630Z,21617.00
2023-04-30T11:16:22.719Z,20549.00
2023-04-30T11:17:22.723Z,21461.00
2023-04-30T11:18:22.612Z,22783.00
2023-04-30T11:19:22.546Z,22315.00
2023-04-30T11:20:22.545Z,27556.00
2023-04-30T11:21:22.566Z,23563.00
2023-04-30T11:22:22.505Z,19807.00
2023-04-30T11:23:32.206Z,24748.00
2023-04-30T11:24:22.529Z,20900.00
2023-04-30T11:25:22.508Z,25092.00
2023-04-30T11:26:22.512Z,35769.00
2023-04-30T11:27:22.545Z,24518.00
2023-04-30T11:28:22.481Z,21020.00
2023-04-30T11:29:22.518Z,21056.00
2023-04-30T11:30:22.442Z,20668.00
2023-04-30T11:31:22.439Z,26280.00
2023-04-30T11:32:22.498Z,23480.00
2023-04-30T11:33:22.419Z,24260.00
2023-04-30T11:34:22.435Z,28301.00
2023-04-30T11:35:22.371Z,25790.00
2023-04-30T11:36:22.405Z,31727.00
2023-04-30T11:37:22.383Z,25320.00
2023-04-30T11:38:22.371Z,24673.00
2023-04-30T11:39:22.349Z,24666.00
2023-04-30T11:40:22.331Z,25305.00
2023-04-30T11:41:22.327Z,26737.00
2023-04-30T11:42:22.335Z,27140.00
2023-04-30T11:43:22.325Z,26369.00
2023-04-30T11:44:22.322Z,26439.00
2023-04-30T11:45:22.284Z,25188.00
2023-04-30T11:46:22.278Z,25969.00
2023-04-30T11:47:22.341Z,27826.00
2023-04-30T11:48:22.285Z,27614.00
2023-04-30T11:49:22.272Z,30287.00
2023-04-30T11:50:22.263Z,26333.00
2023-04-30T11:51:22.272Z,40545.00
2023-04-30T11:52:22.232Z,31478.00
2023-04-30T11:53:22.240Z,32420.00
2023-04-30T11:54:22.225Z,25899.00
2023-04-30T11:55:22.183Z,25924.00
2023-04-30T11:56:22.524Z,27940.00
2023-04-30T11:57:22.146Z,23780.00
2023-04-30T11:58:22.175Z,37561.00
2023-04-30T11:59:22.162Z,29768.00
2023-04-30T12:00:22.162Z,27012.00
2023-04-30T12:01:22.105Z,30130.00
2023-04-30T12:02:22.153Z,29323.00
2023-04-30T12:03:22.167Z,27996.00
2023-04-30T12:04:22.155Z,27644.00
2023-04-30T12:05:22.076Z,23558.00
2023-04-30T12:06:22.078Z,72529.00
2023-04-30T12:07:22.746Z,40003.00
2023-04-30T12:08:22.048Z,26020.00
2023-04-30T12:09:22.041Z,70862.00
2023-04-30T12:10:22.079Z,38847.00
2023-04-30T12:11:22.047Z,30803.00
2023-04-30T12:12:21.989Z,26099.00
2023-04-30T12:13:22.002Z,24727.00
2023-04-30T12:14:21.988Z,24215.00
2023-04-30T12:15:21.957Z,16915.00
2023-04-30T12:16:22.026Z,71481.00
2023-04-30T12:17:21.961Z,37089.00
2023-04-30T12:18:21.927Z,37776.00
2023-04-30T12:19:21.940Z,28582.00